sensor_id;sensor_type;location;lat;lon;timestamp;P1;durP1;ratioP1;P2;durP2;ratioP2
67757;SDS011;54562;47.620;18.786;2024-03-02T00:03:01;34.30;;;20.00;;
67757;SDS011;54562;47.620;18.786;2024-03-02T00:06:05;34.50;;;20.00;;
67757;SDS011;54562;47.620;18.786;2024-03-02T00:09:10;37.10;;;21.60;;
67757;SDS011;54562;47.620;18.786;2024-03-02T00:12:15;36.70;;;21.80;;
67757;SDS011;54562;47.620;18.786;2024-03-02T00:15:25;37.40;;;21.10;;
67757;SDS011;54562;47.620;18.786;2024-03-02T00:18:38;35.00;;;21.20;;
67757;SDS011;54562;47.620;18.786;2024-03-02T00:21:42;36.60;;;22.30;;
67757;SDS011;54562;47.620;18.786;2024-03-02T00:24:46;35.00;;;19.90;;
67757;SDS011;54562;47.620;18.786;2024-03-02T00:27:50;33.10;;;18.00;;
67757;SDS011;54562;47.620;18.786;2024-03-02T00:30:56;34.40;;;20.70;;
67757;SDS011;54562;47.620;18.786;2024-03-02T00:34:01;36.90;;;21.40;;
67757;SDS011;54562;47.620;18.786;2024-03-02T00:37:08;35.70;;;20.90;;
67757;SDS011;54562;47.620;18.786;2024-03-02T00:40:12;32.10;;;17.00;;
67757;SDS011;54562;47.620;18.786;2024-03-02T00:43:26;35.20;;;21.00;;
67757;SDS011;54562;47.620;18.786;2024-03-02T00:46:45;32.20;;;18.90;;
67757;SDS011;54562;47.620;18.786;2024-03-02T00:49:49;35.00;;;20.80;;
67757;SDS011;54562;47.620;18.786;2024-03-02T00:52:52;35.70;;;20.70;;
67757;SDS011;54562;47.620;18.786;2024-03-02T00:55:56;30.40;;;19.70;;
67757;SDS011;54562;47.620;18.786;2024-03-02T00:58:59;30.90;;;18.50;;
67757;SDS011;54562;47.620;18.786;2024-03-02T01:02:02;35.30;;;19.50;;
67757;SDS011;54562;47.620;18.786;2024-03-02T01:05:07;37.10;;;21.00;;
67757;SDS011;54562;47.620;18.786;2024-03-02T01:08:11;32.60;;;19.90;;
67757;SDS011;54562;47.620;18.786;2024-03-02T01:11:15;34.60;;;20.80;;
67757;SDS011;54562;47.620;18.786;2024-03-02T01:14:18;33.10;;;20.20;;
67757;SDS011;54562;47.620;18.786;2024-03-02T01:17:22;34.80;;;19.30;;
67757;SDS011;54562;47.620;18.786;2024-03-02T01:20:25;37.70;;;21.10;;
67757;SDS011;54562;47.620;18.786;2024-03-02T01:23:29;32.80;;;19.20;;
67757;SDS011;54562;47.620;18.786;2024-03-02T01:26:33;34.70;;;20.00;;
67757;SDS011;54562;47.620;18.786;2024-03-02T01:29:36;29.30;;;16.50;;
67757;SDS011;54562;47.620;18.786;2024-03-02T01:32:40;31.40;;;18.00;;
67757;SDS011;54562;47.620;18.786;2024-03-02T01:35:44;36.20;;;20.90;;
67757;SDS011;54562;47.620;18.786;2024-03-02T01:38:47;30.10;;;17.30;;
67757;SDS011;54562;47.620;18.786;2024-03-02T01:41:51;32.80;;;20.60;;
67757;SDS011;54562;47.620;18.786;2024-03-02T01:44:54;36.80;;;20.10;;
67757;SDS011;54562;47.620;18.786;2024-03-02T01:47:57;36.20;;;20.50;;
67757;SDS011;54562;47.620;18.786;2024-03-02T01:51:01;36.30;;;20.40;;
67757;SDS011;54562;47.620;18.786;2024-03-02T01:54:06;33.60;;;20.10;;
67757;SDS011;54562;47.620;18.786;2024-03-02T01:57:10;29.10;;;16.30;;
67757;SDS011;54562;47.620;18.786;2024-03-02T02:00:14;29.50;;;17.70;;
67757;SDS011;54562;47.620;18.786;2024-03-02T02:03:18;37.60;;;19.70;;
67757;SDS011;54562;47.620;18.786;2024-03-02T02:06:21;36.80;;;20.70;;
67757;SDS011;54562;47.620;18.786;2024-03-02T02:09:25;33.00;;;19.90;;
67757;SDS011;54562;47.620;18.786;2024-03-02T02:12:28;34.60;;;20.60;;
67757;SDS011;54562;47.620;18.786;2024-03-02T02:15:32;36.90;;;20.70;;
67757;SDS011;54562;47.620;18.786;2024-03-02T02:18:37;36.60;;;20.70;;
67757;SDS011;54562;47.620;18.786;2024-03-02T02:21:42;34.10;;;17.70;;
67757;SDS011;54562;47.620;18.786;2024-03-02T02:24:46;34.10;;;20.00;;
67757;SDS011;54562;47.620;18.786;2024-03-02T02:27:49;31.90;;;18.60;;
67757;SDS011;54562;47.620;18.786;2024-03-02T02:30:54;33.20;;;20.30;;
67757;SDS011;54562;47.620;18.786;2024-03-02T02:33:58;34.60;;;20.00;;
67757;SDS011;54562;47.620;18.786;2024-03-02T02:37:01;32.40;;;18.80;;
67757;SDS011;54562;47.620;18.786;2024-03-02T02:40:06;32.60;;;19.30;;
67757;SDS011;54562;47.620;18.786;2024-03-02T02:43:12;34.20;;;19.20;;
67757;SDS011;54562;47.620;18.786;2024-03-02T02:46:15;31.60;;;19.60;;
67757;SDS011;54562;47.620;18.786;2024-03-02T02:49:19;34.30;;;20.10;;
67757;SDS011;54562;47.620;18.786;2024-03-02T02:52:22;32.50;;;18.80;;
67757;SDS011;54562;47.620;18.786;2024-03-02T02:55:25;36.00;;;20.30;;
67757;SDS011;54562;47.620;18.786;2024-03-02T02:58:28;35.10;;;20.40;;
67757;SDS011;54562;47.620;18.786;2024-03-02T03:01:32;35.10;;;19.40;;
67757;SDS011;54562;47.620;18.786;2024-03-02T03:04:36;35.70;;;19.20;;
67757;SDS011;54562;47.620;18.786;2024-03-02T03:07:39;33.10;;;19.50;;
67757;SDS011;54562;47.620;18.786;2024-03-02T03:10:43;31.30;;;17.50;;
67757;SDS011;54562;47.620;18.786;2024-03-02T03:13:46;34.10;;;19.00;;
67757;SDS011;54562;47.620;18.786;2024-03-02T03:16:50;30.60;;;18.30;;
67757;SDS011;54562;47.620;18.786;2024-03-02T03:19:53;32.10;;;18.30;;
67757;SDS011;54562;47.620;18.786;2024-03-02T03:22:56;30.40;;;19.00;;
67757;SDS011;54562;47.620;18.786;2024-03-02T03:26:00;32.80;;;18.20;;
67757;SDS011;54562;47.620;18.786;2024-03-02T03:29:03;32.30;;;19.60;;
67757;SDS011;54562;47.620;18.786;2024-03-02T03:32:07;32.70;;;18.40;;
67757;SDS011;54562;47.620;18.786;2024-03-02T03:35:10;33.80;;;18.50;;
67757;SDS011;54562;47.620;18.786;2024-03-02T03:38:14;31.80;;;17.30;;
67757;SDS011;54562;47.620;18.786;2024-03-02T03:41:18;31.70;;;18.10;;
67757;SDS011;54562;47.620;18.786;2024-03-02T03:44:21;32.00;;;18.60;;
67757;SDS011;54562;47.620;18.786;2024-03-02T03:47:24;36.90;;;18.90;;
67757;SDS011;54562;47.620;18.786;2024-03-02T03:50:28;31.20;;;19.00;;
67757;SDS011;54562;47.620;18.786;2024-03-02T03:53:31;31.70;;;18.60;;
67757;SDS011;54562;47.620;18.786;2024-03-02T03:56:35;34.40;;;18.00;;
67757;SDS011;54562;47.620;18.786;2024-03-02T03:59:38;31.40;;;18.20;;
67757;SDS011;54562;47.620;18.786;2024-03-02T04:02:42;31.60;;;18.00;;
67757;SDS011;54562;47.620;18.786;2024-03-02T04:05:45;30.90;;;18.30;;
67757;SDS011;54562;47.620;18.786;2024-03-02T04:08:48;35.00;;;19.20;;
67757;SDS011;54562;47.620;18.786;2024-03-02T04:11:51;32.00;;;17.60;;
67757;SDS011;54562;47.620;18.786;2024-03-02T04:14:56;30.80;;;17.30;;
67757;SDS011;54562;47.620;18.786;2024-03-02T04:17:59;30.30;;;17.20;;
67757;SDS011;54562;47.620;18.786;2024-03-02T04:21:02;31.20;;;18.50;;
67757;SDS011;54562;47.620;18.786;2024-03-02T04:24:06;36.50;;;19.10;;
67757;SDS011;54562;47.620;18.786;2024-03-02T04:27:10;29.50;;;17.80;;
67757;SDS011;54562;47.620;18.786;2024-03-02T04:30:14;33.10;;;16.80;;
67757;SDS011;54562;47.620;18.786;2024-03-02T04:33:17;31.00;;;16.30;;
67757;SDS011;54562;47.620;18.786;2024-03-02T04:36:21;32.00;;;17.10;;
67757;SDS011;54562;47.620;18.786;2024-03-02T04:39:25;32.40;;;17.80;;
67757;SDS011;54562;47.620;18.786;2024-03-02T04:42:29;34.80;;;18.30;;
67757;SDS011;54562;47.620;18.786;2024-03-02T04:45:32;31.90;;;18.90;;
67757;SDS011;54562;47.620;18.786;2024-03-02T04:48:36;32.10;;;18.80;;
67757;SDS011;54562;47.620;18.786;2024-03-02T04:51:40;33.70;;;17.70;;
67757;SDS011;54562;47.620;18.786;2024-03-02T04:54:43;33.10;;;18.20;;
67757;SDS011;54562;47.620;18.786;2024-03-02T04:58:01;34.00;;;18.60;;
67757;SDS011;54562;47.620;18.786;2024-03-02T05:01:05;33.40;;;19.50;;
67757;SDS011;54562;47.620;18.786;2024-03-02T05:04:08;34.10;;;18.70;;
67757;SDS011;54562;47.620;18.786;2024-03-02T05:07:13;31.30;;;17.90;;
67757;SDS011;54562;47.620;18.786;2024-03-02T05:10:17;33.30;;;19.30;;
67757;SDS011;54562;47.620;18.786;2024-03-02T05:13:20;33.60;;;18.10;;
67757;SDS011;54562;47.620;18.786;2024-03-02T05:16:24;31.40;;;17.00;;
67757;SDS011;54562;47.620;18.786;2024-03-02T05:19:27;36.40;;;20.50;;
67757;SDS011;54562;47.620;18.786;2024-03-02T05:22:30;39.10;;;20.40;;
67757;SDS011;54562;47.620;18.786;2024-03-02T05:25:35;30.70;;;16.40;;
67757;SDS011;54562;47.620;18.786;2024-03-02T05:28:39;35.60;;;18.50;;
67757;SDS011;54562;47.620;18.786;2024-03-02T05:31:42;40.10;;;21.60;;
67757;SDS011;54562;47.620;18.786;2024-03-02T05:34:46;36.60;;;20.70;;
67757;SDS011;54562;47.620;18.786;2024-03-02T05:37:49;36.80;;;20.70;;
67757;SDS011;54562;47.620;18.786;2024-03-02T05:40:52;36.90;;;21.00;;
67757;SDS011;54562;47.620;18.786;2024-03-02T05:43:56;33.70;;;21.30;;
67757;SDS011;54562;47.620;18.786;2024-03-02T05:46:59;38.10;;;21.60;;
67757;SDS011;54562;47.620;18.786;2024-03-02T05:50:03;38.50;;;21.50;;
67757;SDS011;54562;47.620;18.786;2024-03-02T05:53:09;35.10;;;20.30;;
67757;SDS011;54562;47.620;18.786;2024-03-02T05:56:12;36.60;;;20.70;;
67757;SDS011;54562;47.620;18.786;2024-03-02T05:59:16;40.00;;;20.80;;
67757;SDS011;54562;47.620;18.786;2024-03-02T06:02:19;37.20;;;20.70;;
67757;SDS011;54562;47.620;18.786;2024-03-02T06:05:22;35.00;;;20.10;;
67757;SDS011;54562;47.620;18.786;2024-03-02T06:08:26;33.60;;;19.50;;
67757;SDS011;54562;47.620;18.786;2024-03-02T06:11:29;32.20;;;20.90;;
67757;SDS011;54562;47.620;18.786;2024-03-02T06:14:33;36.10;;;20.10;;
67757;SDS011;54562;47.620;18.786;2024-03-02T06:17:36;39.70;;;21.90;;
67757;SDS011;54562;47.620;18.786;2024-03-02T06:20:40;38.00;;;21.20;;
67757;SDS011;54562;47.620;18.786;2024-03-02T06:23:48;36.80;;;21.20;;
67757;SDS011;54562;47.620;18.786;2024-03-02T06:26:51;34.90;;;20.40;;
67757;SDS011;54562;47.620;18.786;2024-03-02T06:30:01;34.50;;;19.10;;
67757;SDS011;54562;47.620;18.786;2024-03-02T06:33:06;36.00;;;20.20;;
67757;SDS011;54562;47.620;18.786;2024-03-02T06:36:09;37.50;;;20.50;;
67757;SDS011;54562;47.620;18.786;2024-03-02T06:39:13;37.10;;;21.80;;
67757;SDS011;54562;47.620;18.786;2024-03-02T06:42:17;38.90;;;21.40;;
67757;SDS011;54562;47.620;18.786;2024-03-02T06:45:20;38.90;;;21.50;;
67757;SDS011;54562;47.620;18.786;2024-03-02T06:48:24;38.30;;;20.90;;
67757;SDS011;54562;47.620;18.786;2024-03-02T06:51:27;39.90;;;22.40;;
67757;SDS011;54562;47.620;18.786;2024-03-02T06:57:40;35.30;;;19.20;;
67757;SDS011;54562;47.620;18.786;2024-03-02T07:00:44;38.70;;;20.60;;
67757;SDS011;54562;47.620;18.786;2024-03-02T07:03:47;36.40;;;21.70;;
67757;SDS011;54562;47.620;18.786;2024-03-02T07:06:51;39.00;;;22.70;;
67757;SDS011;54562;47.620;18.786;2024-03-02T07:09:54;39.10;;;21.90;;
67757;SDS011;54562;47.620;18.786;2024-03-02T07:12:58;39.80;;;22.00;;
67757;SDS011;54562;47.620;18.786;2024-03-02T07:16:02;43.40;;;22.10;;
67757;SDS011;54562;47.620;18.786;2024-03-02T07:19:29;35.70;;;20.80;;
67757;SDS011;54562;47.620;18.786;2024-03-02T07:22:32;39.00;;;21.30;;
67757;SDS011;54562;47.620;18.786;2024-03-02T07:25:36;37.90;;;21.20;;
67757;SDS011;54562;47.620;18.786;2024-03-02T07:28:43;38.00;;;21.10;;
67757;SDS011;54562;47.620;18.786;2024-03-02T07:31:47;40.00;;;22.00;;
67757;SDS011;54562;47.620;18.786;2024-03-02T07:34:50;36.30;;;20.60;;
67757;SDS011;54562;47.620;18.786;2024-03-02T07:37:54;36.90;;;20.40;;
67757;SDS011;54562;47.620;18.786;2024-03-02T07:40:58;37.80;;;20.30;;
67757;SDS011;54562;47.620;18.786;2024-03-02T07:44:02;38.80;;;21.60;;
67757;SDS011;54562;47.620;18.786;2024-03-02T07:47:06;37.20;;;20.50;;
67757;SDS011;54562;47.620;18.786;2024-03-02T07:50:10;41.10;;;22.80;;
67757;SDS011;54562;47.620;18.786;2024-03-02T07:53:13;37.60;;;23.30;;
67757;SDS011;54562;47.620;18.786;2024-03-02T07:56:17;36.50;;;21.30;;
67757;SDS011;54562;47.620;18.786;2024-03-02T07:59:24;38.60;;;21.90;;
67757;SDS011;54562;47.620;18.786;2024-03-02T08:02:27;38.00;;;22.20;;
67757;SDS011;54562;47.620;18.786;2024-03-02T08:05:30;39.60;;;21.60;;
67757;SDS011;54562;47.620;18.786;2024-03-02T08:08:34;34.10;;;19.00;;
67757;SDS011;54562;47.620;18.786;2024-03-02T08:11:37;40.50;;;22.10;;
67757;SDS011;54562;47.620;18.786;2024-03-02T08:14:41;39.70;;;21.20;;
67757;SDS011;54562;47.620;18.786;2024-03-02T08:17:44;42.40;;;23.60;;
67757;SDS011;54562;47.620;18.786;2024-03-02T08:20:51;38.60;;;21.90;;
67757;SDS011;54562;47.620;18.786;2024-03-02T08:23:55;38.00;;;21.60;;
67757;SDS011;54562;47.620;18.786;2024-03-02T08:26:58;35.70;;;20.50;;
67757;SDS011;54562;47.620;18.786;2024-03-02T08:30:03;38.80;;;21.80;;
67757;SDS011;54562;47.620;18.786;2024-03-02T08:33:08;36.40;;;20.90;;
67757;SDS011;54562;47.620;18.786;2024-03-02T08:36:11;38.80;;;21.70;;
67757;SDS011;54562;47.620;18.786;2024-03-02T08:39:15;37.50;;;22.00;;
67757;SDS011;54562;47.620;18.786;2024-03-02T08:42:19;33.70;;;19.60;;
67757;SDS011;54562;47.620;18.786;2024-03-02T08:45:22;35.60;;;21.40;;
67757;SDS011;54562;47.620;18.786;2024-03-02T08:48:25;35.90;;;21.10;;
67757;SDS011;54562;47.620;18.786;2024-03-02T08:51:29;35.50;;;20.00;;
67757;SDS011;54562;47.620;18.786;2024-03-02T08:54:33;31.70;;;19.60;;
67757;SDS011;54562;47.620;18.786;2024-03-02T08:57:37;29.80;;;18.60;;
67757;SDS011;54562;47.620;18.786;2024-03-02T09:00:42;32.10;;;18.80;;
67757;SDS011;54562;47.620;18.786;2024-03-02T09:03:45;31.50;;;17.30;;
67757;SDS011;54562;47.620;18.786;2024-03-02T09:06:49;30.00;;;17.80;;
67757;SDS011;54562;47.620;18.786;2024-03-02T09:09:52;32.00;;;17.80;;
67757;SDS011;54562;47.620;18.786;2024-03-02T09:12:56;35.50;;;19.90;;
67757;SDS011;54562;47.620;18.786;2024-03-02T09:15:59;32.50;;;20.30;;
67757;SDS011;54562;47.620;18.786;2024-03-02T09:19:03;32.50;;;19.40;;
67757;SDS011;54562;47.620;18.786;2024-03-02T09:22:06;32.60;;;18.00;;
67757;SDS011;54562;47.620;18.786;2024-03-02T09:25:10;33.80;;;20.60;;
67757;SDS011;54562;47.620;18.786;2024-03-02T09:28:15;29.50;;;19.00;;
67757;SDS011;54562;47.620;18.786;2024-03-02T09:31:19;29.80;;;18.30;;
67757;SDS011;54562;47.620;18.786;2024-03-02T09:34:22;27.40;;;16.40;;
67757;SDS011;54562;47.620;18.786;2024-03-02T09:37:26;28.30;;;17.10;;
67757;SDS011;54562;47.620;18.786;2024-03-02T09:40:30;26.00;;;16.20;;
67757;SDS011;54562;47.620;18.786;2024-03-02T09:43:34;27.10;;;16.60;;
67757;SDS011;54562;47.620;18.786;2024-03-02T09:46:37;25.00;;;15.40;;
67757;SDS011;54562;47.620;18.786;2024-03-02T09:49:40;24.00;;;14.80;;
67757;SDS011;54562;47.620;18.786;2024-03-02T09:52:44;24.40;;;14.60;;
67757;SDS011;54562;47.620;18.786;2024-03-02T09:55:51;20.70;;;13.70;;
67757;SDS011;54562;47.620;18.786;2024-03-02T09:58:54;21.70;;;13.40;;
67757;SDS011;54562;47.620;18.786;2024-03-02T10:01:58;24.00;;;14.70;;
67757;SDS011;54562;47.620;18.786;2024-03-02T10:05:03;24.80;;;14.60;;
67757;SDS011;54562;47.620;18.786;2024-03-02T10:08:07;23.90;;;13.60;;
67757;SDS011;54562;47.620;18.786;2024-03-02T10:11:10;24.30;;;14.70;;
67757;SDS011;54562;47.620;18.786;2024-03-02T10:14:13;23.90;;;14.50;;
67757;SDS011;54562;47.620;18.786;2024-03-02T10:17:17;25.70;;;15.20;;
67757;SDS011;54562;47.620;18.786;2024-03-02T10:20:25;25.30;;;14.70;;
67757;SDS011;54562;47.620;18.786;2024-03-02T10:23:30;25.40;;;15.80;;
67757;SDS011;54562;47.620;18.786;2024-03-02T10:26:34;22.40;;;14.60;;
67757;SDS011;54562;47.620;18.786;2024-03-02T10:29:38;23.60;;;14.10;;
67757;SDS011;54562;47.620;18.786;2024-03-02T10:32:42;25.50;;;15.10;;
67757;SDS011;54562;47.620;18.786;2024-03-02T10:35:46;23.70;;;14.90;;
67757;SDS011;54562;47.620;18.786;2024-03-02T10:38:51;26.50;;;14.40;;
67757;SDS011;54562;47.620;18.786;2024-03-02T10:41:57;24.40;;;14.30;;
67757;SDS011;54562;47.620;18.786;2024-03-02T10:45:01;26.10;;;14.40;;
67757;SDS011;54562;47.620;18.786;2024-03-02T10:48:06;24.30;;;13.70;;
67757;SDS011;54562;47.620;18.786;2024-03-02T10:51:10;23.00;;;14.10;;
67757;SDS011;54562;47.620;18.786;2024-03-02T10:54:14;26.70;;;14.80;;
67757;SDS011;54562;47.620;18.786;2024-03-02T10:57:17;22.90;;;13.20;;
67757;SDS011;54562;47.620;18.786;2024-03-02T11:00:25;25.20;;;14.60;;
67757;SDS011;54562;47.620;18.786;2024-03-02T11:03:33;24.20;;;14.50;;
67757;SDS011;54562;47.620;18.786;2024-03-02T11:06:38;23.40;;;14.10;;
67757;SDS011;54562;47.620;18.786;2024-03-02T11:09:45;24.10;;;14.60;;
67757;SDS011;54562;47.620;18.786;2024-03-02T11:12:56;23.00;;;13.30;;
67757;SDS011;54562;47.620;18.786;2024-03-02T11:16:05;19.00;;;11.80;;
67757;SDS011;54562;47.620;18.786;2024-03-02T11:19:13;23.50;;;13.50;;
67757;SDS011;54562;47.620;18.786;2024-03-02T11:22:19;17.20;;;11.10;;
67757;SDS011;54562;47.620;18.786;2024-03-02T11:25:23;22.40;;;13.70;;
67757;SDS011;54562;47.620;18.786;2024-03-02T11:28:35;22.40;;;13.90;;
67757;SDS011;54562;47.620;18.786;2024-03-02T11:31:57;21.80;;;13.70;;
67757;SDS011;54562;47.620;18.786;2024-03-02T11:35:02;20.90;;;13.00;;
67757;SDS011;54562;47.620;18.786;2024-03-02T11:38:05;23.40;;;13.50;;
67757;SDS011;54562;47.620;18.786;2024-03-02T11:41:09;21.80;;;13.30;;
67757;SDS011;54562;47.620;18.786;2024-03-02T11:44:13;19.50;;;12.30;;
67757;SDS011;54562;47.620;18.786;2024-03-02T11:47:18;19.90;;;12.20;;
67757;SDS011;54562;47.620;18.786;2024-03-02T11:50:29;17.20;;;11.00;;
67757;SDS011;54562;47.620;18.786;2024-03-02T11:53:32;18.10;;;11.00;;
67757;SDS011;54562;47.620;18.786;2024-03-02T11:56:37;18.50;;;11.70;;
67757;SDS011;54562;47.620;18.786;2024-03-02T11:59:41;17.60;;;10.90;;
67757;SDS011;54562;47.620;18.786;2024-03-02T12:02:44;18.40;;;11.60;;
67757;SDS011;54562;47.620;18.786;2024-03-02T12:05:51;16.60;;;10.20;;
67757;SDS011;54562;47.620;18.786;2024-03-02T12:08:55;15.10;;;9.30;;
67757;SDS011;54562;47.620;18.786;2024-03-02T12:12:03;15.80;;;10.00;;
67757;SDS011;54562;47.620;18.786;2024-03-02T12:15:07;17.00;;;9.70;;
67757;SDS011;54562;47.620;18.786;2024-03-02T12:18:12;15.50;;;9.60;;
67757;SDS011;54562;47.620;18.786;2024-03-02T12:21:16;14.90;;;9.30;;
67757;SDS011;54562;47.620;18.786;2024-03-02T12:24:21;16.20;;;9.40;;
67757;SDS011;54562;47.620;18.786;2024-03-02T12:27:24;14.40;;;9.50;;
67757;SDS011;54562;47.620;18.786;2024-03-02T12:30:29;16.60;;;10.20;;
67757;SDS011;54562;47.620;18.786;2024-03-02T12:33:33;14.70;;;9.70;;
67757;SDS011;54562;47.620;18.786;2024-03-02T12:36:37;15.50;;;9.80;;
67757;SDS011;54562;47.620;18.786;2024-03-02T12:39:42;15.60;;;10.40;;
67757;SDS011;54562;47.620;18.786;2024-03-02T12:42:48;15.50;;;9.90;;
67757;SDS011;54562;47.620;18.786;2024-03-02T12:45:53;13.90;;;9.10;;
67757;SDS011;54562;47.620;18.786;2024-03-02T12:48:57;14.70;;;9.20;;
67757;SDS011;54562;47.620;18.786;2024-03-02T12:52:03;16.20;;;9.70;;
67757;SDS011;54562;47.620;18.786;2024-03-02T12:55:07;16.10;;;9.60;;
67757;SDS011;54562;47.620;18.786;2024-03-02T12:58:16;15.40;;;9.50;;
67757;SDS011;54562;47.620;18.786;2024-03-02T13:01:21;15.30;;;9.90;;
67757;SDS011;54562;47.620;18.786;2024-03-02T13:04:25;15.10;;;9.40;;
67757;SDS011;54562;47.620;18.786;2024-03-02T13:07:30;14.50;;;9.40;;
67757;SDS011;54562;47.620;18.786;2024-03-02T13:10:36;13.90;;;8.90;;
67757;SDS011;54562;47.620;18.786;2024-03-02T13:13:41;15.80;;;9.90;;
67757;SDS011;54562;47.620;18.786;2024-03-02T13:16:44;13.50;;;8.60;;
67757;SDS011;54562;47.620;18.786;2024-03-02T13:19:53;15.70;;;9.10;;
67757;SDS011;54562;47.620;18.786;2024-03-02T13:22:57;14.70;;;9.40;;
67757;SDS011;54562;47.620;18.786;2024-03-02T13:26:00;15.40;;;9.80;;
67757;SDS011;54562;47.620;18.786;2024-03-02T13:29:04;15.30;;;9.90;;
67757;SDS011;54562;47.620;18.786;2024-03-02T13:32:08;16.10;;;10.00;;
67757;SDS011;54562;47.620;18.786;2024-03-02T13:35:11;15.00;;;9.80;;
67757;SDS011;54562;47.620;18.786;2024-03-02T13:38:16;15.80;;;9.90;;
67757;SDS011;54562;47.620;18.786;2024-03-02T13:41:20;14.60;;;9.70;;
67757;SDS011;54562;47.620;18.786;2024-03-02T13:44:23;15.50;;;10.20;;
67757;SDS011;54562;47.620;18.786;2024-03-02T13:47:27;16.40;;;10.50;;
67757;SDS011;54562;47.620;18.786;2024-03-02T13:50:30;14.40;;;9.90;;
67757;SDS011;54562;47.620;18.786;2024-03-02T13:53:35;14.10;;;9.40;;
67757;SDS011;54562;47.620;18.786;2024-03-02T13:56:38;16.80;;;10.20;;
67757;SDS011;54562;47.620;18.786;2024-03-02T13:59:42;15.60;;;9.10;;
67757;SDS011;54562;47.620;18.786;2024-03-02T14:02:46;14.30;;;9.00;;
67757;SDS011;54562;47.620;18.786;2024-03-02T14:05:51;15.40;;;9.10;;
67757;SDS011;54562;47.620;18.786;2024-03-02T14:08:55;14.40;;;9.60;;
67757;SDS011;54562;47.620;18.786;2024-03-02T14:11:58;16.10;;;9.30;;
67757;SDS011;54562;47.620;18.786;2024-03-02T14:15:03;14.70;;;8.50;;
67757;SDS011;54562;47.620;18.786;2024-03-02T14:18:07;15.30;;;8.90;;
67757;SDS011;54562;47.620;18.786;2024-03-02T14:21:12;15.20;;;9.90;;
67757;SDS011;54562;47.620;18.786;2024-03-02T14:24:16;18.00;;;10.00;;
67757;SDS011;54562;47.620;18.786;2024-03-02T14:27:19;17.50;;;10.50;;
67757;SDS011;54562;47.620;18.786;2024-03-02T14:30:39;18.40;;;10.70;;
67757;SDS011;54562;47.620;18.786;2024-03-02T14:33:43;19.20;;;10.30;;
67757;SDS011;54562;47.620;18.786;2024-03-02T14:36:47;18.10;;;10.70;;
67757;SDS011;54562;47.620;18.786;2024-03-02T14:39:51;17.50;;;11.00;;
67757;SDS011;54562;47.620;18.786;2024-03-02T14:42:54;19.80;;;11.90;;
67757;SDS011;54562;47.620;18.786;2024-03-02T14:45:58;20.50;;;11.40;;
67757;SDS011;54562;47.620;18.786;2024-03-02T14:49:02;18.10;;;11.20;;
67757;SDS011;54562;47.620;18.786;2024-03-02T14:52:06;19.60;;;11.60;;
67757;SDS011;54562;47.620;18.786;2024-03-02T14:55:11;19.60;;;11.40;;
67757;SDS011;54562;47.620;18.786;2024-03-02T14:58:15;19.30;;;10.70;;
67757;SDS011;54562;47.620;18.786;2024-03-02T15:01:18;19.50;;;11.00;;
67757;SDS011;54562;47.620;18.786;2024-03-02T15:04:24;18.20;;;10.80;;
67757;SDS011;54562;47.620;18.786;2024-03-02T15:07:28;17.70;;;10.90;;
67757;SDS011;54562;47.620;18.786;2024-03-02T15:10:32;16.60;;;10.30;;
67757;SDS011;54562;47.620;18.786;2024-03-02T15:13:35;19.00;;;11.90;;
67757;SDS011;54562;47.620;18.786;2024-03-02T15:16:39;17.90;;;10.70;;
67757;SDS011;54562;47.620;18.786;2024-03-02T15:19:44;15.30;;;9.60;;
67757;SDS011;54562;47.620;18.786;2024-03-02T15:22:48;15.70;;;9.00;;
67757;SDS011;54562;47.620;18.786;2024-03-02T15:25:51;13.70;;;8.40;;
67757;SDS011;54562;47.620;18.786;2024-03-02T15:28:54;13.70;;;8.30;;
67757;SDS011;54562;47.620;18.786;2024-03-02T15:32:00;13.50;;;8.20;;
67757;SDS011;54562;47.620;18.786;2024-03-02T15:35:07;14.60;;;8.30;;
67757;SDS011;54562;47.620;18.786;2024-03-02T15:38:11;15.20;;;8.60;;
67757;SDS011;54562;47.620;18.786;2024-03-02T15:41:30;15.90;;;8.90;;
67757;SDS011;54562;47.620;18.786;2024-03-02T15:47:36;13.00;;;7.90;;
67757;SDS011;54562;47.620;18.786;2024-03-02T15:50:40;12.60;;;7.50;;
67757;SDS011;54562;47.620;18.786;2024-03-02T15:53:43;13.70;;;8.00;;
67757;SDS011;54562;47.620;18.786;2024-03-02T15:56:47;14.10;;;8.40;;
67757;SDS011;54562;47.620;18.786;2024-03-02T15:59:50;14.40;;;8.20;;
67757;SDS011;54562;47.620;18.786;2024-03-02T16:02:54;13.50;;;8.30;;
67757;SDS011;54562;47.620;18.786;2024-03-02T16:05:57;14.30;;;8.30;;
67757;SDS011;54562;47.620;18.786;2024-03-02T16:09:01;13.70;;;8.10;;
67757;SDS011;54562;47.620;18.786;2024-03-02T16:12:07;15.60;;;8.80;;
67757;SDS011;54562;47.620;18.786;2024-03-02T16:15:11;17.10;;;10.00;;
67757;SDS011;54562;47.620;18.786;2024-03-02T16:18:14;18.10;;;10.30;;
67757;SDS011;54562;47.620;18.786;2024-03-02T16:21:18;22.30;;;12.10;;
67757;SDS011;54562;47.620;18.786;2024-03-02T16:24:26;21.50;;;11.80;;
67757;SDS011;54562;47.620;18.786;2024-03-02T16:27:30;25.50;;;13.30;;
67757;SDS011;54562;47.620;18.786;2024-03-02T16:30:33;24.90;;;13.30;;
67757;SDS011;54562;47.620;18.786;2024-03-02T16:33:37;27.60;;;13.10;;
67757;SDS011;54562;47.620;18.786;2024-03-02T16:36:42;27.70;;;13.10;;
67757;SDS011;54562;47.620;18.786;2024-03-02T16:39:46;25.50;;;13.00;;
67757;SDS011;54562;47.620;18.786;2024-03-02T16:42:50;25.10;;;12.60;;
67757;SDS011;54562;47.620;18.786;2024-03-02T16:45:54;22.60;;;12.30;;
67757;SDS011;54562;47.620;18.786;2024-03-02T16:48:58;24.00;;;12.40;;
67757;SDS011;54562;47.620;18.786;2024-03-02T16:52:03;24.90;;;12.40;;
67757;SDS011;54562;47.620;18.786;2024-03-02T16:55:08;24.30;;;12.20;;
67757;SDS011;54562;47.620;18.786;2024-03-02T16:58:13;23.50;;;13.00;;
67757;SDS011;54562;47.620;18.786;2024-03-02T17:01:17;26.50;;;13.70;;
67757;SDS011;54562;47.620;18.786;2024-03-02T17:04:21;25.60;;;12.80;;
67757;SDS011;54562;47.620;18.786;2024-03-02T17:07:26;24.20;;;13.00;;
67757;SDS011;54562;47.620;18.786;2024-03-02T17:10:31;28.60;;;15.10;;
67757;SDS011;54562;47.620;18.786;2024-03-02T17:13:34;28.90;;;15.60;;
67757;SDS011;54562;47.620;18.786;2024-03-02T17:16:38;29.10;;;15.20;;
67757;SDS011;54562;47.620;18.786;2024-03-02T17:19:41;26.20;;;13.50;;
67757;SDS011;54562;47.620;18.786;2024-03-02T17:22:45;29.80;;;15.10;;
67757;SDS011;54562;47.620;18.786;2024-03-02T17:25:48;32.60;;;17.20;;
67757;SDS011;54562;47.620;18.786;2024-03-02T17:28:51;37.90;;;18.50;;
67757;SDS011;54562;47.620;18.786;2024-03-02T17:31:56;37.80;;;19.20;;
67757;SDS011;54562;47.620;18.786;2024-03-02T17:35:00;36.90;;;17.80;;
67757;SDS011;54562;47.620;18.786;2024-03-02T17:38:03;34.70;;;18.10;;
67757;SDS011;54562;47.620;18.786;2024-03-02T17:41:07;36.00;;;16.70;;
67757;SDS011;54562;47.620;18.786;2024-03-02T17:44:12;36.70;;;18.10;;
67757;SDS011;54562;47.620;18.786;2024-03-02T17:47:16;36.80;;;17.80;;
67757;SDS011;54562;47.620;18.786;2024-03-02T17:50:20;39.60;;;18.40;;
67757;SDS011;54562;47.620;18.786;2024-03-02T17:53:24;36.30;;;17.50;;